createdAt,value
2019-03-06T00:01:45.280Z,5.92
2019-03-06T00:04:16.558Z,5.87
2019-03-06T00:06:48.435Z,5.96
2019-03-06T00:09:19.672Z,5.88
2019-03-06T00:11:50.910Z,5.82
2019-03-06T00:14:22.140Z,5.94
2019-03-06T00:16:53.583Z,5.78
2019-03-06T00:19:25.025Z,6.07
2019-03-06T00:21:56.594Z,5.93
2019-03-06T00:24:27.920Z,6.06
2019-03-06T00:26:59.261Z,5.87
2019-03-06T00:29:30.601Z,5.88
2019-03-06T00:32:01.986Z,5.88
2019-03-06T00:34:33.310Z,5.87
2019-03-06T00:37:04.622Z,5.61
2019-03-06T00:39:37.532Z,5.80
2019-03-06T00:42:08.840Z,5.61
2019-03-06T00:44:40.157Z,5.69
2019-03-06T00:47:11.607Z,5.54
2019-03-06T00:49:43.255Z,5.51
2019-03-06T00:52:14.651Z,5.61
2019-03-06T00:54:46.171Z,5.55
2019-03-06T00:57:17.415Z,5.65
2019-03-06T00:59:48.903Z,5.51
2019-03-06T01:02:20.217Z,5.60
2019-03-06T01:04:51.404Z,5.69
2019-03-06T01:07:22.639Z,5.53
2019-03-06T01:09:53.895Z,5.33
2019-03-06T01:12:25.467Z,5.46
2019-03-06T01:14:57.789Z,5.36
2019-03-06T01:17:29.215Z,5.31
2019-03-06T01:20:00.596Z,5.47
2019-03-06T01:22:32.252Z,5.48
2019-03-06T01:25:03.778Z,5.65
2019-03-06T01:27:35.213Z,5.62
2019-03-06T01:30:12.529Z,5.51
2019-03-06T01:32:44.452Z,5.40
2019-03-06T01:35:24.648Z,5.22
2019-03-06T01:37:57.575Z,5.43
2019-03-06T01:40:39.155Z,5.44
2019-03-06T01:43:17.985Z,5.35
2019-03-06T01:45:49.460Z,5.35
2019-03-06T01:48:20.764Z,5.31
2019-03-06T01:50:52.110Z,5.21
2019-03-06T01:53:23.477Z,5.32
2019-03-06T01:55:55.024Z,5.36
2019-03-06T01:58:26.774Z,5.44
2019-03-06T02:00:58.096Z,5.33
2019-03-06T02:03:29.397Z,5.30
2019-03-06T02:06:00.851Z,5.33
2019-03-06T02:08:32.374Z,5.27
2019-03-06T02:11:03.628Z,5.28
2019-03-06T02:13:34.892Z,5.27
2019-03-06T02:16:06.258Z,5.14
2019-03-06T02:18:37.493Z,5.26
2019-03-06T02:21:08.961Z,5.20
2019-03-06T02:23:40.274Z,5.20
2019-03-06T02:26:11.623Z,4.99
2019-03-06T02:28:43.086Z,5.15
2019-03-06T02:31:14.475Z,5.15
2019-03-06T02:33:45.835Z,5.02
2019-03-06T02:36:17.168Z,5.06
2019-03-06T02:38:48.487Z,5.10
2019-03-06T02:41:20.281Z,5.16
2019-03-06T02:43:51.701Z,5.15
2019-03-06T02:46:23.142Z,5.06
2019-03-06T02:48:54.914Z,4.99
2019-03-06T02:51:26.252Z,4.92
2019-03-06T02:53:57.735Z,5.00
2019-03-06T02:56:29.159Z,4.98
2019-03-06T02:59:02.367Z,4.74
2019-03-06T03:01:44.407Z,5.03
2019-03-06T03:04:20.272Z,4.93
2019-03-06T03:06:53.135Z,4.72
2019-03-06T03:09:24.521Z,4.61
2019-03-06T03:11:56.079Z,4.71
2019-03-06T03:14:27.636Z,4.70
2019-03-06T03:16:59.013Z,4.71
2019-03-06T03:19:30.338Z,4.60
2019-03-06T03:22:01.697Z,4.33
2019-03-06T03:24:33.119Z,4.38
2019-03-06T03:27:04.499Z,4.48
2019-03-06T03:29:35.956Z,4.45
2019-03-06T03:32:07.284Z,4.36
2019-03-06T03:34:38.860Z,4.56
2019-03-06T03:37:10.002Z,4.43
2019-03-06T03:39:41.359Z,4.40
2019-03-06T03:42:12.699Z,4.20
2019-03-06T03:44:44.034Z,4.29
2019-03-06T03:47:15.202Z,4.38
2019-03-06T03:49:46.525Z,4.25
2019-03-06T03:52:17.876Z,4.55
2019-03-06T03:54:49.224Z,4.44
2019-03-06T03:57:20.586Z,4.39
2019-03-06T03:59:51.988Z,4.58
2019-03-06T04:02:23.225Z,4.52
2019-03-06T04:04:54.632Z,4.48
2019-03-06T04:07:26.013Z,4.58
2019-03-06T04:09:57.438Z,4.65
2019-03-06T04:12:28.732Z,4.60
2019-03-06T04:15:01.168Z,4.51
2019-03-06T04:17:32.466Z,4.73
2019-03-06T04:20:04.430Z,4.53
2019-03-06T04:22:35.738Z,4.55
2019-03-06T04:25:08.321Z,4.42
2019-03-06T04:27:39.701Z,4.30
2019-03-06T04:30:16.100Z,4.48
2019-03-06T04:32:47.288Z,4.56
2019-03-06T04:35:18.754Z,4.42
2019-03-06T04:37:51.095Z,4.43
2019-03-06T04:40:22.495Z,4.48
2019-03-06T04:42:53.846Z,4.62
2019-03-06T04:45:25.162Z,4.42
2019-03-06T04:47:56.619Z,4.37
2019-03-06T04:50:27.916Z,4.39
2019-03-06T04:52:59.052Z,4.44
2019-03-06T04:55:30.355Z,4.57
2019-03-06T04:58:02.030Z,4.42
2019-03-06T05:00:33.388Z,4.53
2019-03-06T05:03:04.844Z,4.42
2019-03-06T05:05:36.028Z,4.70
2019-03-06T05:08:07.453Z,4.94
2019-03-06T05:10:38.793Z,4.82
2019-03-06T05:13:10.087Z,5.01
2019-03-06T05:15:41.407Z,5.11
2019-03-06T05:18:31.412Z,5.21
2019-03-06T05:21:02.985Z,5.12
2019-03-06T05:23:34.362Z,5.41
2019-03-06T05:26:05.789Z,5.35
2019-03-06T05:28:37.119Z,5.49
2019-03-06T05:31:08.610Z,5.58
2019-03-06T05:33:39.999Z,5.71
2019-03-06T05:36:23.341Z,5.73
2019-03-06T05:39:09.886Z,5.83
2019-03-06T05:41:41.342Z,5.98
2019-03-06T05:44:12.699Z,6.07
2019-03-06T05:46:44.058Z,6.23
2019-03-06T05:49:15.817Z,6.16
2019-03-06T05:51:47.316Z,6.25
2019-03-06T05:54:21.324Z,6.62
2019-03-06T05:56:53.851Z,6.45
2019-03-06T05:59:25.200Z,6.64
2019-03-06T06:01:56.570Z,6.98
2019-03-06T06:04:27.995Z,6.99
2019-03-06T06:06:59.632Z,7.09
2019-03-06T06:09:31.260Z,7.33
2019-03-06T06:12:02.895Z,7.42
2019-03-06T06:14:34.351Z,7.66
2019-03-06T06:17:05.696Z,7.58
2019-03-06T06:19:37.508Z,7.93
2019-03-06T06:22:13.662Z,7.93
2019-03-06T06:24:45.178Z,8.08
2019-03-06T06:27:16.619Z,8.07
2019-03-06T06:29:48.188Z,8.11
2019-03-06T06:32:19.547Z,8.50
2019-03-06T06:34:50.909Z,8.42
2019-03-06T06:37:22.220Z,8.33
2019-03-06T06:39:53.626Z,8.51
2019-03-06T06:42:26.080Z,9.04
2019-03-06T06:44:57.342Z,8.92
2019-03-06T06:47:28.652Z,9.05
2019-03-06T06:50:00.139Z,9.28
2019-03-06T06:52:43.482Z,9.11
2019-03-06T06:55:18.927Z,9.36
2019-03-06T06:58:17.274Z,9.56
2019-03-06T07:01:11.567Z,9.46
2019-03-06T07:04:09.537Z,9.65
2019-03-06T07:06:42.443Z,9.61
2019-03-06T07:09:27.884Z,9.69
2019-03-06T07:12:03.583Z,9.96
2019-03-06T07:14:39.119Z,9.98
2019-03-06T07:17:12.030Z,10.27
2019-03-06T07:19:53.760Z,9.98
2019-03-06T07:22:33.183Z,10.37
2019-03-06T07:25:23.563Z,10.29
2019-03-06T07:27:59.401Z,10.64
2019-03-06T07:30:48.465Z,10.39
2019-03-06T07:33:28.723Z,10.36
2019-03-06T07:36:17.929Z,10.30
2019-03-06T07:38:50.536Z,10.65
2019-03-06T07:41:26.488Z,10.66
2019-03-06T07:43:59.388Z,10.90
2019-03-06T07:46:32.355Z,10.97
2019-03-06T07:49:17.898Z,10.90
2019-03-06T07:52:02.787Z,11.32
2019-03-06T07:54:41.911Z,11.43
2019-03-06T07:57:14.907Z,11.19
2019-03-06T07:59:46.761Z,11.66
2019-03-06T08:02:24.300Z,11.68
2019-03-06T08:04:55.933Z,11.61
2019-03-06T08:07:26.970Z,11.64
2019-03-06T08:09:58.109Z,11.74
2019-03-06T08:12:33.892Z,11.74
2019-03-06T08:15:09.483Z,11.90
2019-03-06T08:17:42.588Z,11.96
2019-03-06T08:20:32.006Z,12.00
2019-03-06T08:23:16.835Z,11.95
2019-03-06T08:25:49.917Z,11.90
2019-03-06T08:28:21.508Z,12.55
2019-03-06T08:30:54.673Z,12.33
2019-03-06T08:33:26.689Z,12.39
2019-03-06T08:35:58.135Z,12.09
2019-03-06T08:38:29.439Z,12.23
2019-03-06T08:41:04.516Z,12.72
2019-03-06T08:43:33.794Z,13.00
2019-03-06T08:46:18.840Z,13.14
2019-03-06T08:48:51.877Z,13.06
2019-03-06T08:51:24.887Z,12.73
2019-03-06T08:54:03.824Z,13.16
2019-03-06T08:56:42.695Z,13.23
2019-03-06T08:59:15.732Z,13.07
2019-03-06T09:02:00.458Z,13.14
2019-03-06T09:04:37.143Z,13.44
2019-03-06T09:07:18.962Z,12.94
2019-03-06T09:10:06.951Z,13.30
2019-03-06T09:12:58.053Z,13.09
2019-03-06T09:15:33.740Z,13.56
2019-03-06T09:18:22.009Z,13.36
2019-03-06T09:20:54.945Z,13.30
2019-03-06T09:23:30.652Z,13.33
2019-03-06T09:26:06.405Z,13.32
2019-03-06T09:29:01.007Z,13.78
2019-03-06T09:31:36.161Z,14.07
2019-03-06T09:34:09.186Z,14.00
2019-03-06T09:36:44.941Z,13.86
2019-03-06T09:39:33.792Z,13.85
2019-03-06T09:42:06.688Z,14.02
2019-03-06T09:44:42.655Z,13.73
2019-03-06T09:47:15.624Z,14.04
2019-03-06T09:49:51.212Z,14.13
2019-03-06T09:52:25.122Z,13.89
2019-03-06T09:55:11.512Z,14.51
2019-03-06T09:57:47.560Z,13.64
2019-03-06T10:00:29.275Z,14.51
2019-03-06T10:03:05.148Z,14.01
2019-03-06T10:05:50.179Z,14.08
2019-03-06T10:08:32.013Z,13.88
2019-03-06T10:11:17.201Z,14.20
2019-03-06T10:14:02.428Z,14.05
2019-03-06T10:16:48.654Z,13.94
2019-03-06T10:19:18.502Z,14.22
2019-03-06T10:21:49.853Z,13.97
2019-03-06T10:24:21.207Z,14.07
2019-03-06T10:26:52.564Z,14.09
2019-03-06T10:29:24.155Z,14.25
2019-03-06T10:31:55.510Z,14.13
2019-03-06T10:34:27.067Z,14.11
2019-03-06T10:36:58.386Z,14.46
2019-03-06T10:39:29.863Z,14.36
2019-03-06T10:42:01.334Z,13.89
2019-03-06T10:44:32.779Z,13.33
2019-03-06T10:47:04.228Z,13.24
2019-03-06T10:49:35.692Z,13.68
2019-03-06T10:52:06.946Z,13.57
2019-03-06T10:54:44.940Z,13.40
2019-03-06T10:57:20.430Z,14.03
2019-03-06T10:59:54.899Z,14.23
2019-03-06T11:02:26.180Z,14.33
2019-03-06T11:04:59.144Z,14.06
2019-03-06T11:07:30.479Z,13.17
2019-03-06T11:10:01.722Z,13.06
2019-03-06T11:12:33.161Z,13.44
2019-03-06T11:15:08.113Z,13.52
2019-03-06T11:17:39.421Z,13.73
2019-03-06T11:20:20.376Z,13.87
2019-03-06T11:22:54.293Z,14.02
2019-03-06T11:25:29.074Z,14.06
2019-03-06T11:28:08.287Z,13.89
2019-03-06T11:30:48.429Z,14.12
2019-03-06T11:33:22.604Z,14.28
2019-03-06T11:35:58.833Z,14.31
2019-03-06T11:38:30.191Z,14.22
2019-03-06T11:41:01.956Z,14.00
2019-03-06T11:43:33.499Z,14.07
2019-03-06T11:46:06.013Z,13.78
2019-03-06T11:48:37.517Z,14.03
2019-03-06T11:51:09.045Z,14.16
2019-03-06T11:53:40.383Z,14.41
2019-03-06T11:56:11.872Z,14.56
2019-03-06T11:58:43.387Z,14.56
2019-03-06T12:01:19.825Z,14.34
2019-03-06T12:03:51.443Z,14.27
2019-03-06T12:06:23.215Z,14.81
2019-03-06T12:08:54.585Z,14.33
2019-03-06T12:11:25.854Z,14.49
2019-03-06T12:13:57.348Z,14.35
2019-03-06T12:16:28.696Z,14.10
2019-03-06T12:19:00.041Z,14.01
2019-03-06T12:21:32.547Z,13.83
2019-03-06T12:24:03.941Z,13.86
2019-03-06T12:26:35.188Z,14.42
2019-03-06T12:29:06.631Z,14.30
2019-03-06T12:31:37.952Z,14.29
2019-03-06T12:34:09.283Z,13.94
2019-03-06T12:36:40.635Z,14.04
2019-03-06T12:39:12.029Z,14.31
2019-03-06T12:41:45.016Z,14.21
2019-03-06T12:44:16.392Z,13.85
2019-03-06T12:46:47.708Z,13.68
2019-03-06T12:49:19.173Z,13.66
2019-03-06T12:51:54.326Z,13.94
2019-03-06T12:54:23.641Z,13.56
2019-03-06T12:56:55.010Z,13.55
2019-03-06T12:59:26.299Z,13.39
2019-03-06T13:01:58.018Z,13.44
2019-03-06T13:04:29.605Z,13.55
2019-03-06T13:07:01.250Z,13.52
2019-03-06T13:09:32.984Z,13.55
2019-03-06T13:12:05.322Z,13.69
2019-03-06T13:14:36.991Z,13.59
2019-03-06T13:17:08.363Z,13.44
2019-03-06T13:19:51.494Z,13.52
2019-03-06T13:22:32.290Z,13.44
2019-03-06T13:25:03.808Z,12.98
2019-03-06T13:27:35.278Z,13.05
2019-03-06T13:30:09.918Z,12.88
2019-03-06T13:32:59.055Z,13.04
2019-03-06T13:35:33.607Z,13.20
2019-03-06T13:38:04.883Z,13.02
2019-03-06T13:40:36.368Z,12.95
2019-03-06T13:43:07.656Z,13.08
2019-03-06T13:45:39.074Z,13.10
2019-03-06T13:48:10.397Z,13.11
2019-03-06T13:50:41.740Z,12.97
2019-03-06T13:53:20.375Z,12.62
2019-03-06T13:55:52.255Z,12.85
2019-03-06T13:58:23.536Z,12.48
2019-03-06T14:00:55.393Z,12.50
2019-03-06T14:03:26.234Z,12.54
2019-03-06T14:05:58.385Z,12.27
2019-03-06T14:08:29.816Z,12.56
2019-03-06T14:11:01.277Z,12.16
2019-03-06T14:13:32.618Z,12.00
2019-03-06T14:16:04.434Z,11.97
2019-03-06T14:18:35.847Z,11.95
2019-03-06T14:21:06.925Z,11.95
2019-03-06T14:23:38.241Z,11.81
2019-03-06T14:26:09.689Z,11.98
2019-03-06T14:28:40.991Z,11.83
2019-03-06T14:31:12.976Z,12.11
2019-03-06T14:33:44.416Z,11.97
2019-03-06T14:36:15.792Z,11.85
2019-03-06T14:38:47.059Z,11.84
2019-03-06T14:41:18.434Z,11.84
2019-03-06T14:43:49.758Z,12.15
2019-03-06T14:46:21.279Z,11.97
2019-03-06T14:48:53.816Z,11.85
2019-03-06T14:51:25.165Z,12.12
2019-03-06T14:53:56.584Z,11.96
2019-03-06T14:56:28.244Z,12.06
2019-03-06T14:59:00.135Z,12.06
2019-03-06T15:01:31.595Z,11.78
2019-03-06T15:04:03.062Z,12.12
2019-03-06T15:06:35.211Z,11.70
2019-03-06T15:09:22.900Z,11.61
2019-03-06T15:11:54.285Z,11.57
2019-03-06T15:14:38.675Z,11.54
2019-03-06T15:17:22.517Z,11.57
2019-03-06T15:19:54.073Z,11.51
2019-03-06T15:22:26.534Z,11.11
2019-03-06T15:24:57.901Z,11.21
2019-03-06T15:27:29.291Z,11.13
2019-03-06T15:30:00.939Z,11.42
2019-03-06T15:32:34.160Z,11.32
2019-03-06T15:35:05.836Z,11.21
2019-03-06T15:37:37.278Z,11.11
2019-03-06T15:40:22.362Z,11.17
2019-03-06T15:42:54.084Z,10.98
2019-03-06T15:45:26.916Z,10.98
2019-03-06T15:47:59.451Z,10.80
2019-03-06T15:50:31.034Z,10.83
2019-03-06T15:53:02.373Z,10.82
2019-03-06T15:55:34.846Z,10.82
2019-03-06T15:58:06.355Z,10.78
2019-03-06T16:00:46.208Z,10.82
2019-03-06T16:03:13.956Z,10.92
2019-03-06T16:05:45.320Z,10.81
2019-03-06T16:08:16.796Z,10.62
2019-03-06T16:10:48.557Z,10.65
2019-03-06T16:13:20.415Z,10.59
2019-03-06T16:15:51.686Z,10.52
2019-03-06T16:18:25.846Z,10.54
2019-03-06T16:20:57.332Z,10.49
2019-03-06T16:23:32.241Z,10.57
2019-03-06T16:26:12.484Z,10.54
2019-03-06T16:28:48.891Z,10.63
2019-03-06T16:31:30.637Z,10.71
2019-03-06T16:34:04.601Z,10.59
2019-03-06T16:36:37.564Z,10.56
2019-03-06T16:39:08.925Z,10.55
2019-03-06T16:41:42.195Z,10.57
2019-03-06T16:44:13.651Z,10.63
2019-03-06T16:46:44.914Z,10.58
2019-03-06T16:49:16.261Z,10.70
2019-03-06T16:51:49.269Z,10.59
2019-03-06T16:54:27.589Z,10.54
2019-03-06T16:57:05.815Z,10.45
2019-03-06T16:59:40.063Z,10.45
2019-03-06T17:02:14.484Z,10.44
2019-03-06T17:04:47.432Z,10.43
2019-03-06T17:07:18.931Z,10.36
2019-03-06T17:09:50.303Z,10.13
2019-03-06T17:12:29.159Z,10.21
2019-03-06T17:15:00.871Z,10.20
2019-03-06T17:17:32.540Z,9.98
2019-03-06T17:20:05.046Z,9.99
2019-03-06T17:22:36.413Z,10.01
2019-03-06T17:25:08.058Z,10.13
2019-03-06T17:27:39.376Z,9.92
2019-03-06T17:30:13.581Z,10.03
2019-03-06T17:32:53.870Z,10.02
2019-03-06T17:35:25.669Z,9.86
2019-03-06T17:37:56.926Z,9.85
2019-03-06T17:40:29.259Z,9.83
2019-03-06T17:43:01.813Z,9.84
2019-03-06T17:45:33.217Z,9.78
2019-03-06T17:48:05.196Z,9.78
2019-03-06T17:50:36.731Z,9.75
2019-03-06T17:53:09.035Z,9.50
2019-03-06T17:55:40.534Z,9.42
2019-03-06T17:58:11.945Z,9.40
2019-03-06T18:00:44.912Z,9.30
2019-03-06T18:03:18.010Z,9.33
2019-03-06T18:05:50.881Z,9.20
2019-03-06T18:08:22.298Z,8.94
2019-03-06T18:10:53.743Z,8.96
2019-03-06T18:13:25.305Z,8.89
2019-03-06T18:15:56.678Z,8.98
2019-03-06T18:18:29.215Z,8.91
2019-03-06T18:21:00.807Z,8.87
2019-03-06T18:23:34.386Z,8.79
2019-03-06T18:26:06.235Z,8.76
2019-03-06T18:28:37.699Z,8.87
2019-03-06T18:31:09.014Z,8.82
2019-03-06T18:33:40.486Z,8.90
2019-03-06T18:36:13.023Z,8.89
2019-03-06T18:38:44.507Z,8.68
2019-03-06T18:41:15.891Z,8.81
2019-03-06T18:43:50.248Z,8.65
2019-03-06T18:46:23.334Z,8.73
2019-03-06T18:48:54.584Z,8.73
2019-03-06T18:51:26.077Z,8.68
2019-03-06T18:53:57.516Z,8.64
2019-03-06T18:56:28.888Z,8.61
2019-03-06T18:59:00.281Z,8.85
2019-03-06T19:01:31.594Z,8.70
2019-03-06T19:04:02.968Z,8.73
2019-03-06T19:06:37.515Z,8.63
2019-03-06T19:09:08.891Z,8.72
2019-03-06T19:11:40.591Z,8.67
2019-03-06T19:14:21.957Z,8.70
2019-03-06T19:16:53.600Z,8.76
2019-03-06T19:19:24.982Z,8.70
2019-03-06T19:21:56.330Z,8.53
2019-03-06T19:24:34.455Z,8.57
2019-03-06T19:27:06.183Z,8.73
2019-03-06T19:29:37.628Z,8.53
2019-03-06T19:32:09.002Z,8.56
2019-03-06T19:34:40.427Z,8.40
2019-03-06T19:37:11.938Z,8.42
2019-03-06T19:39:43.233Z,8.35
2019-03-06T19:42:14.550Z,8.73
2019-03-06T19:44:45.885Z,8.51
2019-03-06T19:47:17.435Z,8.51
2019-03-06T19:49:48.697Z,8.41
2019-03-06T19:52:20.041Z,8.59
2019-03-06T19:54:51.468Z,8.55
2019-03-06T19:57:22.925Z,8.53
2019-03-06T19:59:54.561Z,8.45
2019-03-06T20:02:26.030Z,8.35
2019-03-06T20:04:57.389Z,8.39
2019-03-06T20:07:28.568Z,8.35
2019-03-06T20:09:59.964Z,8.22
2019-03-06T20:12:32.593Z,8.09
2019-03-06T20:15:05.179Z,8.10
2019-03-06T20:17:36.535Z,8.06
2019-03-06T20:20:10.504Z,8.05
2019-03-06T20:22:41.858Z,7.98
2019-03-06T20:25:13.582Z,8.00
2019-03-06T20:27:45.162Z,7.78
2019-03-06T20:30:18.491Z,7.73
2019-03-06T20:32:49.840Z,7.61
2019-03-06T20:35:22.610Z,7.72
2019-03-06T20:37:53.999Z,7.58
2019-03-06T20:40:25.455Z,7.42
2019-03-06T20:42:57.043Z,7.45
2019-03-06T20:45:28.465Z,7.22
2019-03-06T20:47:59.748Z,7.42
2019-03-06T20:50:31.295Z,7.27
2019-03-06T20:53:02.508Z,7.21
2019-03-06T20:55:33.817Z,7.07
2019-03-06T20:58:05.560Z,7.22
2019-03-06T21:00:36.904Z,6.91
2019-03-06T21:03:08.309Z,6.93
2019-03-06T21:05:39.676Z,6.86
2019-03-06T21:08:11.176Z,6.89
2019-03-06T21:10:43.587Z,6.72
2019-03-06T21:13:16.534Z,6.54
2019-03-06T21:15:48.148Z,6.48
2019-03-06T21:18:19.621Z,6.68
2019-03-06T21:20:52.145Z,6.42
2019-03-06T21:23:23.374Z,6.30
2019-03-06T21:25:54.822Z,6.30
2019-03-06T21:28:26.136Z,6.33
2019-03-06T21:30:57.495Z,6.41
2019-03-06T21:33:28.850Z,6.22
2019-03-06T21:36:01.895Z,6.10
2019-03-06T21:38:33.256Z,6.23
2019-03-06T21:41:04.749Z,6.36
2019-03-06T21:43:36.214Z,6.56
2019-03-06T21:46:07.542Z,6.61
2019-03-06T21:48:39.020Z,6.67
2019-03-06T21:51:10.501Z,6.66
2019-03-06T21:53:41.850Z,6.49
2019-03-06T21:56:13.186Z,6.60
2019-03-06T21:58:44.518Z,6.38
2019-03-06T22:01:16.331Z,6.39
2019-03-06T22:03:47.650Z,6.38
2019-03-06T22:06:18.965Z,6.08
2019-03-06T22:08:50.435Z,6.23
2019-03-06T22:11:21.858Z,6.29
2019-03-06T22:13:53.573Z,6.11
2019-03-06T22:16:24.956Z,5.95
2019-03-06T22:18:56.174Z,6.14
2019-03-06T22:21:27.376Z,5.73
2019-03-06T22:23:58.658Z,5.99
2019-03-06T22:26:30.144Z,6.06
2019-03-06T22:29:01.720Z,5.86
2019-03-06T22:31:32.955Z,6.00
2019-03-06T22:34:04.429Z,6.07
2019-03-06T22:36:35.740Z,6.00
2019-03-06T22:39:08.303Z,5.78
2019-03-06T22:41:39.774Z,5.91
2019-03-06T22:44:11.073Z,5.88
2019-03-06T22:46:42.331Z,5.78
2019-03-06T22:49:13.718Z,5.94
2019-03-06T22:51:45.617Z,6.12
2019-03-06T22:54:17.010Z,5.93
2019-03-06T22:56:48.476Z,5.81
2019-03-06T22:59:19.773Z,5.96
2019-03-06T23:01:53.163Z,5.73
2019-03-06T23:04:24.280Z,5.77
2019-03-06T23:06:55.632Z,5.65
2019-03-06T23:09:27.106Z,5.56
2019-03-06T23:11:58.507Z,5.64
2019-03-06T23:14:29.961Z,5.41
2019-03-06T23:17:01.433Z,5.60
2019-03-06T23:19:32.856Z,5.73
2019-03-06T23:22:05.713Z,5.64
2019-03-06T23:24:37.047Z,5.61
2019-03-06T23:27:09.871Z,5.43
2019-03-06T23:29:41.318Z,5.50
2019-03-06T23:32:12.728Z,5.65
2019-03-06T23:34:44.059Z,5.64
2019-03-06T23:37:15.364Z,5.79
2019-03-06T23:39:46.895Z,5.58
2019-03-06T23:42:18.223Z,5.70
2019-03-06T23:44:49.483Z,5.66
2019-03-06T23:47:20.847Z,5.49
2019-03-06T23:49:52.155Z,5.56
2019-03-06T23:52:25.095Z,5.58
2019-03-06T23:54:56.558Z,5.52
2019-03-06T23:57:27.906Z,5.60
2019-03-06T23:59:59.281Z,5.59
